Página principal
METAR-TAF:

METAR-TAF

Aeroportos :

Kelibia, Tunísia

latitude: 36-51N, longitude: 011-05E, altura: 29 m

Observação actual do tempo

O boletim foi feito há 12 minutos, às 17:00 UTC
Vento 12 kt de noroeste com rajadas de 23 kt, variando entre sudoeste e norte
Temperatura 28°C
Humidade 70%
Pressão 1012 hPa

METAR: DTTL 231700Z AUTO 31012G23KT 230V360 NCD 28/22 Q1012

Hora: 18:12 (17:12 UTC)


TAF: em falta

Observações e previsões do tempo de mais de 4000 aeroportos (mensagens METAR e TAF).

As estações disponíveis são os pontos amarelos e vermelhos sobre o mapa.

Mova o rato sobre o mapa para ver o nome da estação.

Depois clique no ponto para visualizar as observações e previsões meteorológicas.

Para alterar o mapa : clique nos botões verdes com uma cruz preta para aumentar o zoom; no botão verde com uma pitada de zoom; ou nas setas verdes para mapas adjacentes.


METAR-TAF: